Hlavní strana
METAR-TAF:

METAR-TAF

Letiště :

Port of Spain, Trinidad, Trinidad a Tobago

zeměpisná šířka: 10-37N, zeměpisná délka: 061-21W, výška: 12 m

Aktuální stav počasí

Zpráva byla vytvořena před 18 minutami, v 00:00 UTC
Východní vítr 6 kt
Teplota 26°C
Vlhkost vzduchu 89%
Tlak 1013 hPa
Viditelnost 10 km a více
Skoro jasno ve výšce 1600 ft

METAR: TTPP 180000Z 10006KT 9999 FEW016 26/24 Q1013 NOSIG

Čas: 20:18 (00:18 UTC)

Předpověď počasí

Zpráva byla vytvořena před 2 hodinami a 18 minutami, v 22:00 UTC
Předpověď platná od 18 v 00 UTC do 18 v 24 UTC
Východoseverovýchodní vítr 5 kt
Viditelnost 10 km a více
Skoro jasno ve výšce 1800 ft
Polojasno ve výšce 4000 ft
Dočasný
od 18 v 09 UTC do 18 v 14 UTC
Viditelnost: 6000 m
Polojasno ve výšce 1500 ft
Polojasno ve výšce 3500 ft
dešťové přeháňky
Změna
od 18 v 12 UTC do 18 v 14 UTC
Východní vítr 15 kt
Polojasno ve výšce 2500 ft

TAF: TTPP 172200Z 1800/1824 07005KT 9999 FEW018 SCT040 TEMPO 1809/1814 6000 SHRA SCT015 SCT035 BECMG 1812/1814 10015KT SCT025

Stav a předpovědi počasí z více než 4 000 letišť (zprávy METAR a TAF).

Červené a žluté tečky na mapě představují dostupné meteorologické stanice.

Když kurzor umístíte na tečku, zobrazí se název stanice.

Pak kliknutím zobrazíte stav a předpověď počasí.

Chcete-li změnit mapu, kliknutím na zelené tlačítko se znaménkem +mapu přiblížíte, kliknutím na zelené tlačítko se znaménkem – mapu oddálíte a kliknutím na zelené šipky přejdete na sousední mapy.


METAR-TAF: